Time;durP1;ratioP1;P1;durP2;ratioP2;P2;SDS_P1;SDS_P2;PMS_P1;PMS_P2;Temp;Humidity;BMP_temperature;BMP_pressure;BME280_temperature;BME280_humidity;BME280_pressure;Samples;Min_cycle;Max_cycle;Signal;HPM_P1;HPM_P2
2023/08/24 00:01:12;;;;;;;6.90;3.20;;;23.00;97.20;;;;;;5022065;28;20461;-75
2023/08/24 00:03:38;;;;;;;3.00;2.70;;;23.10;97.20;;;;;;5043252;28;20577;-74
2023/08/24 00:06:04;;;;;;;4.17;2.80;;;23.00;97.10;;;;;;5022438;28;20458;-75
2023/08/24 00:08:30;;;;;;;3.60;2.90;;;23.00;97.10;;;;;;5025057;28;20898;-75
2023/08/24 00:10:56;;;;;;;5.60;3.03;;;23.00;97.20;;;;;;5022159;28;20211;-74
2023/08/24 00:13:21;;;;;;;4.03;3.20;;;22.90;97.20;;;;;;5025674;28;20953;-75
2023/08/24 00:15:47;;;;;;;3.13;2.83;;;22.90;97.30;;;;;;5058678;28;20712;-75
2023/08/24 00:18:13;;;;;;;4.17;3.17;;;22.90;97.20;;;;;;5024123;28;20231;-75
2023/08/24 00:20:38;;;;;;;3.97;3.00;;;22.80;97.60;;;;;;5026718;28;20222;-75
2023/08/24 00:23:04;;;;;;;5.33;3.23;;;22.80;97.50;;;;;;5025974;28;20207;-75
2023/08/24 00:25:30;;;;;;;3.20;2.90;;;22.80;97.60;;;;;;5029587;28;20788;-75
2023/08/24 00:27:56;;;;;;;4.40;3.50;;;22.70;97.80;;;;;;5056117;28;20226;-75
2023/08/24 00:30:23;;;;;;;3.47;2.63;;;22.70;97.80;;;;;;5010834;28;20457;-75
2023/08/24 00:32:50;;;;;;;3.77;3.47;;;22.80;98.00;;;;;;5010680;28;20465;-75
2023/08/24 00:35:15;;;;;;;3.47;3.17;;;22.80;98.00;;;;;;5024717;28;20239;-75
2023/08/24 00:37:41;;;;;;;3.80;3.20;;;22.80;98.10;;;;;;5060756;28;20586;-74
2023/08/24 00:40:10;;;;;;;5.83;3.20;;;22.70;98.10;;;;;;5041590;28;20218;-75
2023/08/24 00:42:45;;;;;;;5.77;3.90;;;22.70;98.20;;;;;;5029086;28;20215;-74
2023/08/24 00:45:12;;;;;;;3.20;3.00;;;22.70;98.20;;;;;;5025971;28;21111;-75
2023/08/24 00:47:44;;;;;;;6.20;2.93;;;22.70;98.30;;;;;;5041184;28;20535;-74
2023/08/24 00:50:11;;;;;;;3.57;3.27;;;22.70;98.30;;;;;;5025389;28;20470;-75
2023/08/24 00:52:39;;;;;;;4.53;3.13;;;22.60;98.30;;;;;;5029555;28;20550;-74
2023/08/24 00:55:06;;;;;;;4.70;3.30;;;22.60;98.70;;;;;;5026209;28;20470;-75
2023/08/24 00:57:32;;;;;;;4.93;3.67;;;22.60;98.70;;;;;;5029006;28;20488;-75
2023/08/24 01:00:02;;;;;;;3.37;3.07;;;22.60;98.70;;;;;;5007599;28;20666;-74
2023/08/24 01:02:28;;;;;;;3.40;3.10;;;22.60;98.70;;;;;;5023567;28;20536;-74
2023/08/24 01:04:55;;;;;;;3.17;2.87;;;22.70;98.60;;;;;;5024415;28;20459;-74
2023/08/24 01:07:21;;;;;;;3.87;3.50;;;22.70;98.60;;;;;;5056932;28;20473;-75
2023/08/24 01:09:47;;;;;;;3.43;3.13;;;22.70;98.50;;;;;;5029377;28;20461;-75
2023/08/24 01:12:43;;;;;;;3.30;3.00;;;22.60;98.50;;;;;;5037763;28;20222;-75
2023/08/24 01:15:17;;;;;;;3.33;2.87;;;22.60;98.70;;;;;;5024826;28;20480;-75
2023/08/24 01:17:43;;;;;;;5.00;3.10;;;22.50;98.70;;;;;;5025870;28;20542;-76
2023/08/24 01:20:11;;;;;;;3.50;3.20;;;22.50;98.90;;;;;;5021258;28;20461;-74
2023/08/24 01:22:46;;;;;;;5.70;3.43;;;22.40;98.80;;;;;;5053614;28;20470;-75
2023/08/24 01:25:33;;;;;;;3.63;3.33;;;22.40;98.90;;;;;;5019787;28;20488;-75
2023/08/24 01:28:01;;;;;;;4.73;2.80;;;22.40;99.00;;;;;;5015919;28;20497;-76
2023/08/24 01:30:27;;;;;;;3.97;3.10;;;22.40;99.10;;;;;;5052746;28;20477;-76
2023/08/24 01:32:53;;;;;;;5.80;3.00;;;22.40;99.10;;;;;;5021537;28;20593;-74
2023/08/24 01:35:19;;;;;;;3.70;3.10;;;22.40;99.00;;;;;;5023243;28;20954;-76
2023/08/24 01:37:45;;;;;;;4.00;3.43;;;22.40;99.00;;;;;;5023836;28;20855;-75
2023/08/24 01:40:20;;;;;;;3.80;2.90;;;22.40;99.10;;;;;;5033849;28;20219;-74
2023/08/24 01:42:55;;;;;;;3.57;3.07;;;22.40;99.20;;;;;;5038146;28;20473;-75
2023/08/24 01:45:25;;;;;;;5.50;4.40;;;22.40;99.30;;;;;;5037562;28;20508;-74
2023/08/24 01:47:53;;;;;;;3.53;3.23;;;22.30;99.40;;;;;;5022896;28;21018;-75
2023/08/24 01:50:19;;;;;;;3.30;3.00;;;22.30;99.70;;;;;;5024050;28;21106;-75
2023/08/24 01:52:44;;;;;;;5.40;3.63;;;22.30;99.70;;;;;;5037573;28;20481;-75
2023/08/24 01:55:11;;;;;;;3.73;3.40;;;22.30;99.80;;;;;;5020792;28;20312;-75
2023/08/24 01:57:37;;;;;;;4.50;3.30;;;22.30;99.90;;;;;;5021345;28;20221;-74
2023/08/24 02:00:09;;;;;;;3.90;3.50;;;22.30;99.90;;;;;;5033055;28;20477;-75
2023/08/24 02:02:39;;;;;;;4.17;3.63;;;22.30;99.90;;;;;;5026782;28;21330;-75
2023/08/24 02:05:05;;;;;;;5.80;4.13;;;22.30;99.90;;;;;;5020634;28;20492;-75
2023/08/24 02:07:31;;;;;;;3.33;3.03;;;22.30;99.90;;;;;;5024988;28;20233;-74
2023/08/24 02:09:57;;;;;;;3.97;3.60;;;22.30;99.90;;;;;;5003521;28;20477;-75
2023/08/24 02:12:22;;;;;;;9.83;3.33;;;22.30;99.90;;;;;;5040884;28;20223;-75
2023/08/24 02:14:48;;;;;;;3.40;3.10;;;22.20;99.90;;;;;;5043483;28;20268;-75
2023/08/24 02:17:15;;;;;;;3.27;2.97;;;22.20;99.90;;;;;;5055665;28;20310;-74
2023/08/24 02:19:41;;;;;;;3.80;3.37;;;22.20;99.90;;;;;;5060606;27;20469;-75
2023/08/24 02:22:08;;;;;;;7.93;3.60;;;22.20;99.90;;;;;;5024193;28;20211;-74
2023/08/24 02:24:34;;;;;;;3.50;3.20;;;22.20;99.90;;;;;;5041861;28;21209;-74
2023/08/24 02:27:00;;;;;;;4.60;3.00;;;22.20;99.90;;;;;;5009142;28;20260;-75
2023/08/24 02:29:26;;;;;;;3.67;3.37;;;22.10;99.90;;;;;;5044742;28;20226;-75
2023/08/24 02:31:51;;;;;;;5.93;3.83;;;22.20;99.90;;;;;;5029437;28;20501;-74
2023/08/24 02:34:18;;;;;;;3.70;3.40;;;22.20;99.90;;;;;;5041096;28;20223;-75
2023/08/24 02:36:44;;;;;;;3.43;3.13;;;22.20;99.90;;;;;;5044287;28;20416;-74
2023/08/24 02:39:10;;;;;;;4.47;3.10;;;22.20;99.90;;;;;;5026944;28;20481;-74
2023/08/24 02:41:36;;;;;;;3.83;3.40;;;22.10;99.90;;;;;;5011323;28;20327;-75
2023/08/24 02:44:02;;;;;;;4.20;3.60;;;22.10;99.90;;;;;;5038565;28;20465;-75
2023/08/24 02:46:28;;;;;;;4.13;3.43;;;22.10;99.90;;;;;;5028755;28;20288;-75
2023/08/24 02:48:53;;;;;;;3.60;3.30;;;22.10;99.90;;;;;;5010007;28;20474;-75
2023/08/24 02:51:22;;;;;;;3.53;3.00;;;22.10;99.90;;;;;;5027437;28;20767;-75
2023/08/24 02:53:49;;;;;;;4.47;3.60;;;22.10;99.90;;;;;;5030482;28;20610;-75
2023/08/24 02:56:14;;;;;;;4.17;3.03;;;22.10;99.90;;;;;;5025076;28;20477;-75
2023/08/24 02:58:40;;;;;;;3.30;3.00;;;22.10;99.90;;;;;;5011964;28;20473;-75
2023/08/24 03:01:09;;;;;;;4.43;3.00;;;22.10;99.90;;;;;;5012089;28;20247;-76
2023/08/24 03:03:36;;;;;;;3.47;3.17;;;22.10;99.90;;;;;;5045786;28;20219;-75
2023/08/24 03:06:04;;;;;;;6.73;3.10;;;22.10;99.90;;;;;;5038962;28;20534;-75
2023/08/24 03:08:32;;;;;;;4.47;2.97;;;22.10;99.90;;;;;;5028427;28;20505;-74
2023/08/24 03:10:59;;;;;;;3.13;2.83;;;22.10;99.90;;;;;;5024193;28;20481;-75
2023/08/24 03:13:25;;;;;;;3.50;3.00;;;22.00;99.90;;;;;;5028934;28;20490;-75
2023/08/24 03:15:53;;;;;;;3.80;3.40;;;22.00;99.90;;;;;;5041698;28;20508;-75
2023/08/24 03:18:18;;;;;;;3.60;3.30;;;22.00;99.90;;;;;;5056637;28;20601;-75
2023/08/24 03:20:46;;;;;;;3.77;3.47;;;21.90;99.90;;;;;;5027504;28;20906;-75
2023/08/24 03:23:14;;;;;;;3.43;2.87;;;21.90;99.90;;;;;;5037160;28;20315;-75
2023/08/24 03:25:41;;;;;;;3.80;3.47;;;22.00;99.90;;;;;;5026041;28;20588;-76
2023/08/24 03:28:08;;;;;;;3.23;2.93;;;21.90;99.90;;;;;;5006464;28;21115;-74
2023/08/24 03:30:39;;;;;;;4.20;3.87;;;21.90;99.90;;;;;;5042213;28;20469;-75
2023/08/24 03:33:07;;;;;;;5.13;3.87;;;21.90;99.90;;;;;;5022509;28;20498;-75
2023/08/24 03:35:33;;;;;;;3.97;3.20;;;21.90;99.90;;;;;;5010424;28;20504;-75
2023/08/24 03:37:59;;;;;;;4.00;3.23;;;21.90;99.90;;;;;;5022819;28;20230;-75
2023/08/24 03:40:25;;;;;;;4.40;3.17;;;21.90;99.90;;;;;;5040339;28;20492;-75
2023/08/24 03:42:52;;;;;;;3.87;3.07;;;21.90;99.90;;;;;;5028133;28;20465;-74
2023/08/24 03:45:18;;;;;;;4.30;3.70;;;21.90;99.90;;;;;;5037969;28;20227;-76
2023/08/24 03:47:44;;;;;;;6.87;3.60;;;21.90;99.90;;;;;;5027045;28;20474;-74
2023/08/24 03:50:10;;;;;;;3.47;3.17;;;21.90;99.90;;;;;;5036423;28;20476;-74
2023/08/24 03:52:36;;;;;;;3.37;3.07;;;21.90;99.90;;;;;;5025475;28;20498;-75
2023/08/24 03:55:02;;;;;;;3.83;3.43;;;21.90;99.90;;;;;;5022133;28;20263;-76
2023/08/24 03:57:28;;;;;;;7.20;3.43;;;21.90;99.90;;;;;;5037553;28;20223;-75
2023/08/24 03:59:53;;;;;;;5.97;3.30;;;21.90;99.90;;;;;;5035893;28;20211;-75
2023/08/24 04:02:19;;;;;;;3.10;2.80;;;21.80;99.90;;;;;;5025200;28;20875;-75
2023/08/24 04:04:46;;;;;;;5.87;3.40;;;21.70;99.90;;;;;;5038337;28;20226;-74
2023/08/24 04:07:12;;;;;;;3.17;2.87;;;21.70;99.90;;;;;;5021953;28;20480;-75
2023/08/24 04:09:37;;;;;;;3.23;3.03;;;21.80;99.90;;;;;;5023883;28;20482;-75
2023/08/24 04:12:03;;;;;;;5.60;3.67;;;21.80;99.90;;;;;;5022847;28;20280;-75
2023/08/24 04:14:29;;;;;;;3.90;3.60;;;21.80;99.90;;;;;;5014315;28;20277;-75
2023/08/24 04:16:55;;;;;;;3.70;3.40;;;21.80;99.90;;;;;;5021830;28;20322;-75
2023/08/24 04:19:21;;;;;;;3.80;3.50;;;21.80;99.90;;;;;;5021407;28;20491;-75
2023/08/24 04:21:47;;;;;;;8.10;4.23;;;21.80;99.90;;;;;;5026288;28;20505;-75
2023/08/24 04:24:12;;;;;;;5.67;4.17;;;21.80;99.90;;;;;;5019227;28;20227;-75
2023/08/24 04:26:38;;;;;;;5.83;3.97;;;21.80;99.90;;;;;;5024847;28;20216;-75
2023/08/24 04:29:04;;;;;;;6.90;3.93;;;21.80;99.90;;;;;;5035172;28;21029;-75
2023/08/24 04:31:29;;;;;;;3.80;3.00;;;21.80;99.90;;;;;;5025969;28;20233;-75
2023/08/24 04:33:55;;;;;;;6.90;4.00;;;21.70;99.90;;;;;;5021651;28;20223;-75
2023/08/24 04:36:21;;;;;;;7.00;3.37;;;21.70;99.90;;;;;;5026262;28;20258;-75
2023/08/24 04:38:46;;;;;;;5.40;4.33;;;21.70;99.90;;;;;;5040118;28;20279;-74
2023/08/24 04:41:12;;;;;;;4.80;4.40;;;21.70;99.90;;;;;;5021900;28;20307;-75
2023/08/24 04:43:38;;;;;;;5.47;4.03;;;21.70;99.90;;;;;;5025136;28;20226;-75
2023/08/24 04:46:03;;;;;;;4.20;3.77;;;21.60;99.90;;;;;;5035916;28;21005;-74
2023/08/24 04:48:32;;;;;;;4.90;4.13;;;21.50;99.90;;;;;;5023538;28;20318;-74
2023/08/24 04:50:59;;;;;;;5.13;4.03;;;21.50;99.90;;;;;;5051823;28;20317;-74
2023/08/24 04:53:26;;;;;;;6.80;4.40;;;21.50;99.90;;;;;;5005573;28;21220;-75
2023/08/24 04:55:52;;;;;;;5.87;5.27;;;21.50;99.90;;;;;;5025818;28;21105;-75
2023/08/24 04:58:18;;;;;;;5.97;5.47;;;21.50;99.90;;;;;;5018294;28;20651;-75
2023/08/24 05:00:44;;;;;;;7.00;5.33;;;21.50;99.90;;;;;;5019198;28;20477;-76
2023/08/24 05:03:09;;;;;;;7.10;5.10;;;21.50;99.90;;;;;;5015502;28;20385;-76
2023/08/24 05:05:36;;;;;;;6.00;5.40;;;21.40;99.90;;;;;;5022392;28;20490;-74
2023/08/24 05:08:05;;;;;;;5.17;4.70;;;21.30;99.90;;;;;;5014710;28;20274;-76
2023/08/24 05:10:33;;;;;;;4.97;4.50;;;21.30;99.90;;;;;;5035158;28;20486;-76
2023/08/24 05:12:59;;;;;;;4.43;4.03;;;21.20;99.90;;;;;;5018737;28;20482;-76
2023/08/24 05:15:25;;;;;;;5.47;4.43;;;21.20;99.90;;;;;;5010561;28;20489;-76
2023/08/24 05:17:55;;;;;;;5.00;4.20;;;21.10;99.90;;;;;;5019565;28;20578;-75
2023/08/24 05:20:22;;;;;;;6.23;4.37;;;21.10;99.90;;;;;;5019784;28;20473;-76
2023/08/24 05:22:48;;;;;;;5.17;4.67;;;21.00;99.90;;;;;;5019996;28;21784;-74
2023/08/24 05:25:16;;;;;;;4.63;4.30;;;21.20;99.90;;;;;;5032411;28;20470;-76
2023/08/24 05:27:42;;;;;;;5.23;4.80;;;21.10;99.90;;;;;;5020906;28;20563;-75
2023/08/24 05:30:08;;;;;;;4.53;4.13;;;21.20;99.90;;;;;;4996121;28;21086;-75
2023/08/24 05:32:38;;;;;;;5.23;4.33;;;21.20;99.90;;;;;;5021811;28;20700;-75
2023/08/24 05:35:08;;;;;;;7.97;4.63;;;21.30;99.90;;;;;;5016829;28;20474;-75
2023/08/24 05:37:34;;;;;;;5.33;4.83;;;21.40;99.90;;;;;;4994813;28;20531;-75
2023/08/24 05:40:01;;;;;;;5.43;4.40;;;21.40;99.90;;;;;;4989635;28;20536;-74
2023/08/24 05:42:27;;;;;;;5.80;4.70;;;21.30;99.90;;;;;;4993515;28;20492;-74
2023/08/24 05:44:52;;;;;;;5.27;4.60;;;21.30;99.90;;;;;;4979853;28;21200;-75
2023/08/24 05:47:18;;;;;;;5.00;4.60;;;21.30;99.90;;;;;;4975047;28;20236;-74
2023/08/24 05:49:44;;;;;;;4.50;4.00;;;21.40;99.90;;;;;;4997144;28;20767;-75
2023/08/24 05:52:10;;;;;;;4.50;4.10;;;21.40;99.90;;;;;;4995358;28;20227;-75
2023/08/24 05:54:38;;;;;;;4.70;4.20;;;21.50;99.90;;;;;;4997319;28;20918;-74
2023/08/24 05:57:05;;;;;;;4.87;4.40;;;21.40;99.90;;;;;;4994501;28;20224;-76
2023/08/24 05:59:31;;;;;;;5.30;4.30;;;21.50;99.90;;;;;;4996492;28;21055;-75
2023/08/24 06:01:57;;;;;;;4.63;4.23;;;21.50;99.90;;;;;;5022926;28;20496;-76
2023/08/24 06:04:23;;;;;;;5.03;4.63;;;21.60;99.90;;;;;;4994017;28;20477;-76
2023/08/24 06:06:48;;;;;;;9.53;5.63;;;21.60;99.90;;;;;;4994980;28;20341;-76
2023/08/24 06:09:17;;;;;;;5.40;4.90;;;21.60;99.90;;;;;;4992960;28;20330;-75
2023/08/24 06:11:43;;;;;;;13.23;4.37;;;21.60;99.90;;;;;;4995692;28;20347;-75
2023/08/24 06:14:08;;;;;;;5.57;5.00;;;21.60;99.90;;;;;;4990029;28;20485;-75
2023/08/24 06:16:34;;;;;;;8.50;5.00;;;21.50;99.90;;;;;;5007719;28;20238;-76
2023/08/24 06:19:00;;;;;;;5.03;4.40;;;21.50;99.90;;;;;;4989944;28;20231;-75
2023/08/24 06:21:25;;;;;;;8.00;4.43;;;21.50;99.90;;;;;;4994772;28;20229;-74
2023/08/24 06:23:51;;;;;;;4.90;4.50;;;21.50;99.90;;;;;;4981483;28;20220;-73
2023/08/24 06:26:18;;;;;;;4.80;4.20;;;21.50;99.90;;;;;;4991940;28;20934;-74
2023/08/24 06:28:44;;;;;;;6.53;4.40;;;21.50;99.90;;;;;;5023851;28;20391;-75
2023/08/24 06:31:09;;;;;;;5.30;4.90;;;21.30;99.90;;;;;;4975919;28;20658;-75
2023/08/24 06:33:36;;;;;;;4.60;4.20;;;21.30;99.90;;;;;;4977978;28;20233;-74
2023/08/24 06:36:05;;;;;;;6.47;4.70;;;21.40;99.90;;;;;;4991668;28;20308;-75
2023/08/24 06:38:31;;;;;;;6.10;4.47;;;21.40;99.90;;;;;;5011003;28;20588;-75
2023/08/24 06:41:00;;;;;;;5.30;4.10;;;21.50;99.90;;;;;;4992731;28;20481;-74
2023/08/24 06:43:27;;;;;;;4.70;4.30;;;21.60;99.90;;;;;;4994236;28;20489;-74
2023/08/24 06:45:54;;;;;;;5.47;5.03;;;21.50;99.90;;;;;;4992600;28;20482;-75
2023/08/24 06:48:20;;;;;;;6.13;5.30;;;21.50;99.90;;;;;;4995243;28;20507;-73
2023/08/24 06:50:45;;;;;;;5.40;4.90;;;21.50;99.90;;;;;;5010076;28;21189;-75
2023/08/24 06:53:11;;;;;;;10.13;5.20;;;21.50;99.90;;;;;;4989222;28;20223;-74
2023/08/24 06:55:37;;;;;;;5.80;5.20;;;21.50;99.90;;;;;;4990395;28;20366;-74
2023/08/24 06:58:06;;;;;;;5.47;4.90;;;21.60;99.90;;;;;;4991186;28;20935;-74
2023/08/24 07:00:32;;;;;;;6.20;5.70;;;21.60;99.90;;;;;;4993999;28;20227;-75
2023/08/24 07:02:58;;;;;;;5.83;5.20;;;21.60;99.90;;;;;;4989726;28;20484;-75
2023/08/24 07:05:23;;;;;;;6.10;5.30;;;21.70;99.90;;;;;;4997333;28;21172;-74
2023/08/24 07:07:50;;;;;;;5.90;4.97;;;21.80;99.90;;;;;;4977562;28;20320;-75
2023/08/24 07:10:15;;;;;;;5.43;4.93;;;21.80;99.90;;;;;;4987997;28;20231;-75
2023/08/24 07:12:41;;;;;;;7.50;5.00;;;21.80;99.90;;;;;;5000348;28;20479;-76
2023/08/24 07:15:08;;;;;;;4.90;4.50;;;21.80;99.90;;;;;;5001167;28;20341;-75
2023/08/24 07:17:33;;;;;;;6.53;5.07;;;21.80;99.90;;;;;;5019798;28;20231;-75
2023/08/24 07:19:59;;;;;;;4.50;4.20;;;21.80;99.90;;;;;;5001832;28;20470;-74
2023/08/24 07:22:27;;;;;;;5.67;5.10;;;21.80;99.90;;;;;;4984692;28;20272;-75
2023/08/24 07:24:53;;;;;;;5.77;5.27;;;21.80;99.90;;;;;;4999465;28;20224;-75
2023/08/24 07:27:19;;;;;;;6.63;5.20;;;21.70;99.90;;;;;;5000743;28;20480;-75
2023/08/24 07:29:45;;;;;;;5.80;5.20;;;21.80;99.90;;;;;;5000938;28;20596;-74
2023/08/24 07:32:11;;;;;;;4.50;4.13;;;21.80;99.90;;;;;;4999705;28;20543;-75
2023/08/24 07:34:36;;;;;;;5.20;4.70;;;21.80;99.90;;;;;;4999938;28;20235;-75
2023/08/24 07:37:02;;;;;;;4.77;4.37;;;21.80;99.90;;;;;;5014393;28;20318;-73
2023/08/24 07:39:28;;;;;;;5.10;4.60;;;21.80;99.90;;;;;;4999642;28;20273;-75
2023/08/24 07:41:54;;;;;;;5.60;4.83;;;21.90;99.90;;;;;;4999127;28;20215;-75
2023/08/24 07:44:20;;;;;;;5.27;4.77;;;21.90;99.90;;;;;;4997664;28;21181;-73
2023/08/24 07:46:47;;;;;;;6.20;5.00;;;21.90;99.90;;;;;;5000716;28;20226;-73
2023/08/24 07:49:13;;;;;;;5.13;4.70;;;21.90;99.90;;;;;;4998356;28;20477;-75
2023/08/24 07:51:39;;;;;;;5.70;4.47;;;21.90;99.90;;;;;;5009187;28;20560;-74
2023/08/24 07:54:06;;;;;;;4.57;4.17;;;21.90;99.90;;;;;;4999092;28;20305;-75
2023/08/24 07:56:32;;;;;;;7.83;5.50;;;21.90;99.90;;;;;;5000618;28;20235;-74
2023/08/24 07:58:58;;;;;;;5.37;4.87;;;21.90;99.90;;;;;;5010839;28;21216;-75
2023/08/24 08:01:24;;;;;;;9.10;5.17;;;21.80;99.90;;;;;;5028829;28;20608;-74
2023/08/24 08:03:49;;;;;;;6.83;5.50;;;21.80;99.90;;;;;;4999512;28;20219;-74
2023/08/24 08:06:15;;;;;;;6.20;4.90;;;21.90;99.90;;;;;;4998542;28;20235;-75
2023/08/24 08:08:41;;;;;;;6.30;5.70;;;21.90;99.90;;;;;;5000248;28;20231;-75
2023/08/24 08:11:07;;;;;;;5.80;5.30;;;21.90;99.90;;;;;;5001117;28;20307;-75
2023/08/24 08:13:33;;;;;;;4.80;4.40;;;21.90;99.90;;;;;;4997555;28;20305;-75
2023/08/24 08:16:06;;;;;;;7.10;5.40;;;21.90;99.90;;;;;;4997223;28;20235;-75
2023/08/24 08:18:32;;;;;;;5.80;4.90;;;21.90;99.90;;;;;;4999856;28;20231;-74
2023/08/24 08:20:58;;;;;;;5.10;4.70;;;21.90;99.90;;;;;;4998798;28;20477;-74
2023/08/24 08:23:24;;;;;;;7.47;5.00;;;21.90;99.90;;;;;;4998568;28;20481;-75
2023/08/24 08:25:50;;;;;;;5.53;5.03;;;22.00;99.90;;;;;;4998232;28;20596;-74
2023/08/24 08:28:17;;;;;;;5.20;4.80;;;22.00;99.90;;;;;;5001545;28;20223;-75
2023/08/24 08:30:43;;;;;;;6.20;5.70;;;22.00;99.90;;;;;;4996653;28;20223;-75
2023/08/24 08:33:09;;;;;;;5.33;4.83;;;22.00;99.90;;;;;;5007508;28;20474;-75
2023/08/24 08:35:35;;;;;;;7.13;5.30;;;22.00;99.90;;;;;;5008162;28;20485;-75
2023/08/24 08:38:01;;;;;;;6.90;5.30;;;22.10;99.90;;;;;;5023300;28;20926;-74
2023/08/24 08:40:30;;;;;;;9.23;5.10;;;22.10;99.90;;;;;;4991015;28;20275;-75
2023/08/24 08:42:58;;;;;;;6.30;5.80;;;22.10;99.90;;;;;;5022501;28;20224;-75
2023/08/24 08:45:28;;;;;;;6.70;5.27;;;22.20;99.90;;;;;;5026473;28;20973;-73
2023/08/24 08:47:59;;;;;;;6.60;5.00;;;22.20;99.90;;;;;;5026392;28;20596;-74
2023/08/24 08:50:25;;;;;;;5.77;5.27;;;22.20;99.90;;;;;;5027181;28;21120;-74
2023/08/24 08:52:51;;;;;;;6.67;5.97;;;22.20;99.90;;;;;;5038559;28;20516;-73
2023/08/24 08:55:17;;;;;;;6.00;5.60;;;22.20;99.90;;;;;;5041173;28;20481;-74
2023/08/24 08:57:46;;;;;;;5.97;5.40;;;22.30;99.90;;;;;;5025303;28;20223;-74
2023/08/24 09:00:16;;;;;;;5.17;4.87;;;22.30;99.90;;;;;;5041966;28;20503;-74
2023/08/24 09:02:45;;;;;;;6.37;5.80;;;22.30;99.90;;;;;;5028428;28;20457;-74
2023/08/24 09:05:11;;;;;;;6.23;5.73;;;22.50;99.90;;;;;;5011832;28;20465;-75
2023/08/24 09:07:39;;;;;;;5.60;5.00;;;22.60;99.90;;;;;;5030602;28;20466;-75
2023/08/24 09:10:07;;;;;;;6.33;5.83;;;22.70;99.90;;;;;;5012740;28;20488;-75
2023/08/24 09:12:33;;;;;;;6.00;5.40;;;22.70;99.90;;;;;;5058373;28;21089;-74
2023/08/24 09:14:59;;;;;;;6.53;5.73;;;22.80;99.90;;;;;;5042824;28;21082;-75
2023/08/24 09:17:25;;;;;;;5.70;5.07;;;22.80;99.90;;;;;;5008786;28;20503;-74
2023/08/24 09:19:53;;;;;;;5.97;5.47;;;23.00;99.90;;;;;;5056830;28;20250;-75
2023/08/24 09:22:19;;;;;;;5.63;5.13;;;23.10;99.90;;;;;;5028993;28;20234;-75
2023/08/24 09:24:48;;;;;;;5.77;5.37;;;23.10;99.90;;;;;;5029618;28;20474;-75
2023/08/24 09:27:18;;;;;;;6.07;4.80;;;23.10;99.90;;;;;;5026838;28;20759;-75
2023/08/24 09:29:49;;;;;;;5.83;5.33;;;23.20;99.90;;;;;;5042553;28;20542;-75
2023/08/24 09:32:15;;;;;;;5.70;5.27;;;23.30;99.90;;;;;;5028637;28;20913;-75
2023/08/24 09:34:41;;;;;;;6.23;5.50;;;23.40;99.90;;;;;;5025599;28;20465;-74
2023/08/24 09:37:15;;;;;;;5.20;4.70;;;23.60;99.90;;;;;;5029902;28;21108;-75
2023/08/24 09:39:41;;;;;;;5.57;5.17;;;23.70;99.90;;;;;;5042387;28;20460;-75
2023/08/24 09:42:07;;;;;;;5.47;4.90;;;23.70;99.90;;;;;;5029595;28;20658;-75
2023/08/24 09:44:32;;;;;;;5.17;4.67;;;23.80;99.90;;;;;;5002871;28;20481;-74
2023/08/24 09:46:59;;;;;;;5.20;4.80;;;23.90;99.90;;;;;;5013652;28;20320;-74
2023/08/24 09:49:26;;;;;;;5.57;5.00;;;23.90;99.90;;;;;;5003116;28;20787;-74
2023/08/24 09:51:57;;;;;;;6.43;4.57;;;24.00;99.90;;;;;;5004888;28;20465;-74
2023/08/24 09:54:27;;;;;;;5.30;4.60;;;24.20;99.90;;;;;;5005246;28;20536;-75
2023/08/24 09:56:55;;;;;;;5.20;4.70;;;24.30;99.90;;;;;;5003674;28;20601;-75
2023/08/24 09:59:24;;;;;;;5.87;5.33;;;24.30;99.90;;;;;;5028696;28;20515;-75
2023/08/24 10:01:51;;;;;;;7.40;5.20;;;24.50;99.90;;;;;;5042229;28;20570;-74
2023/08/24 10:04:24;;;;;;;5.63;5.13;;;24.80;99.90;;;;;;5030498;28;20450;-75
2023/08/24 10:06:57;;;;;;;5.23;4.73;;;24.90;99.90;;;;;;5010872;28;20482;-76
2023/08/24 10:09:31;;;;;;;6.10;5.43;;;24.80;99.90;;;;;;5011002;28;20473;-75
2023/08/24 10:12:00;;;;;;;6.00;4.87;;;24.80;99.90;;;;;;5029658;28;20474;-75
2023/08/24 10:14:34;;;;;;;5.33;4.80;;;25.10;99.90;;;;;;5030774;28;20457;-75
2023/08/24 10:17:00;;;;;;;5.10;4.70;;;25.30;99.90;;;;;;5018210;28;20478;-75
2023/08/24 10:19:28;;;;;;;10.37;5.10;;;25.50;99.90;;;;;;5029531;28;20572;-76
2023/08/24 10:21:57;;;;;;;5.50;4.47;;;25.50;99.90;;;;;;5028056;28;20470;-74
2023/08/24 10:24:23;;;;;;;4.77;4.37;;;25.50;99.90;;;;;;5042865;28;20558;-75
2023/08/24 10:26:50;;;;;;;5.27;4.77;;;25.60;99.90;;;;;;5031852;28;20612;-75
2023/08/24 10:29:17;;;;;;;5.37;4.97;;;25.70;99.90;;;;;;5043731;28;20843;-75
2023/08/24 10:31:43;;;;;;;5.63;5.23;;;25.90;99.90;;;;;;5028674;28;20501;-76
2023/08/24 10:34:09;;;;;;;5.50;5.00;;;26.20;99.90;;;;;;5061224;28;21047;-76
2023/08/24 10:36:39;;;;;;;5.43;4.93;;;26.30;99.90;;;;;;5064641;28;20503;-75
2023/08/24 10:39:06;;;;;;;5.60;5.10;;;26.40;99.90;;;;;;5063585;28;20223;-76
2023/08/24 10:41:46;;;;;;;5.40;4.90;;;26.60;99.90;;;;;;5065689;28;20473;-75
2023/08/24 10:44:35;;;;;;;5.43;4.60;;;26.70;99.90;;;;;;5034479;28;20472;-76
2023/08/24 10:47:20;;;;;;;5.10;4.70;;;26.60;99.90;;;;;;5033145;28;20520;-76
2023/08/24 10:49:55;;;;;;;11.70;5.13;;;26.60;99.90;;;;;;5032502;28;21011;-75
2023/08/24 10:52:21;;;;;;;6.30;5.43;;;26.50;99.90;;;;;;5033468;28;20471;-75
2023/08/24 10:54:48;;;;;;;5.50;4.90;;;26.50;99.90;;;;;;5017582;28;20478;-75
2023/08/24 10:57:27;;;;;;;6.10;5.60;;;26.70;99.90;;;;;;5048395;28;20234;-75
2023/08/24 10:59:59;;;;;;;6.23;5.73;;;26.70;99.90;;;;;;4995828;28;20457;-76
2023/08/24 11:02:25;;;;;;;5.50;5.10;;;26.80;99.90;;;;;;5009228;28;20576;-76
2023/08/24 11:05:07;;;;;;;5.30;4.90;;;26.90;99.90;;;;;;5009787;28;20466;-76
2023/08/24 11:07:33;;;;;;;6.00;5.60;;;27.00;99.90;;;;;;5009643;28;20266;-76
2023/08/24 11:09:59;;;;;;;5.67;5.17;;;27.00;99.90;;;;;;5012326;28;20466;-76
2023/08/24 11:12:25;;;;;;;6.07;5.33;;;27.00;99.90;;;;;;5039981;28;20234;-76
2023/08/24 11:14:54;;;;;;;6.20;5.60;;;27.00;99.90;;;;;;5009943;28;20577;-76
2023/08/24 11:17:22;;;;;;;5.00;4.70;;;27.30;99.90;;;;;;5022480;28;20223;-75
2023/08/24 11:19:54;;;;;;;4.97;4.57;;;27.50;99.90;;;;;;5044274;28;20250;-75
2023/08/24 11:22:23;;;;;;;6.57;5.30;;;27.70;99.90;;;;;;5017737;28;20214;-76
2023/08/24 11:24:49;;;;;;;5.40;5.10;;;27.80;99.90;;;;;;5002634;28;20240;-77
2023/08/24 11:27:16;;;;;;;5.40;5.07;;;27.80;99.90;;;;;;5000914;28;20974;-75
2023/08/24 11:29:42;;;;;;;5.60;5.20;;;27.80;99.90;;;;;;5005188;28;20219;-76
2023/08/24 11:32:08;;;;;;;6.18;5.57;;;27.80;99.90;;;;;;5000573;28;20215;-76
2023/08/24 11:34:37;;;;;;;6.45;5.22;;;27.70;99.90;;;;;;5033264;28;20258;-76
2023/08/24 11:37:03;;;;;;;9.07;6.10;;;27.60;99.90;;;;;;5002061;28;20215;-76
2023/08/24 11:39:32;;;;;;;6.07;5.35;;;27.60;99.90;;;;;;5005462;28;20229;-76
2023/08/24 11:42:03;;;;;;;6.18;5.68;;;27.60;99.90;;;;;;5003026;28;20215;-75
2023/08/24 11:44:30;;;;;;;5.88;5.47;;;27.60;99.90;;;;;;5019590;28;20215;-76
2023/08/24 11:46:59;;;;;;;8.77;5.90;;;27.50;99.90;;;;;;5004488;28;20234;-77
2023/08/24 11:49:25;;;;;;;5.30;4.90;;;27.50;99.90;;;;;;5005064;28;20267;-75
2023/08/24 11:51:51;;;;;;;5.50;5.10;;;27.60;99.90;;;;;;5004207;28;20484;-75
2023/08/24 11:54:18;;;;;;;5.47;5.13;;;27.60;99.90;;;;;;4997259;28;20223;-76
2023/08/24 11:56:46;;;;;;;6.20;5.13;;;27.70;99.90;;;;;;5006108;28;20256;-76
2023/08/24 11:59:16;;;;;;;5.57;4.90;;;27.70;99.90;;;;;;4982958;28;20318;-76
2023/08/24 12:01:42;;;;;;;5.68;4.93;;;27.80;99.90;;;;;;5016729;28;20254;-76
2023/08/24 12:04:08;;;;;;;5.45;4.90;;;27.80;99.90;;;;;;5013819;28;20894;-76
2023/08/24 12:06:34;;;;;;;5.78;5.20;;;27.80;99.90;;;;;;5004804;28;20222;-75
2023/08/24 12:09:02;;;;;;;5.63;5.13;;;27.80;99.90;;;;;;5028326;28;20226;-75
2023/08/24 12:11:28;;;;;;;5.28;4.88;;;27.80;99.90;;;;;;5021348;28;20720;-75
2023/08/24 12:13:54;;;;;;;6.30;5.13;;;27.70;99.90;;;;;;5007162;28;20223;-76
2023/08/24 12:16:22;;;;;;;6.00;5.57;;;27.80;99.90;;;;;;5002359;28;20231;-75
2023/08/24 12:18:53;;;;;;;6.00;4.90;;;27.80;99.90;;;;;;5004645;28;20241;-76
2023/08/24 12:21:20;;;;;;;5.50;5.10;;;27.80;99.90;;;;;;5001632;28;20226;-76
2023/08/24 12:24:00;;;;;;;5.28;4.78;;;27.70;99.90;;;;;;5005737;28;20598;-75
2023/08/24 12:26:29;;;;;;;6.13;5.53;;;27.70;99.90;;;;;;5032255;28;20241;-75
2023/08/24 12:29:04;;;;;;;5.90;5.40;;;27.80;99.90;;;;;;5013826;28;20300;-75
2023/08/24 12:31:30;;;;;;;5.90;5.47;;;27.70;99.90;;;;;;4988275;28;20918;-76
2023/08/24 12:34:08;;;;;;;6.00;5.43;;;27.70;99.90;;;;;;5006391;28;20230;-76
2023/08/24 12:36:37;;;;;;;5.75;5.18;;;27.80;99.90;;;;;;5035732;28;20729;-75
2023/08/24 12:39:04;;;;;;;5.38;4.97;;;27.80;99.90;;;;;;4987204;28;20720;-76
2023/08/24 12:41:30;;;;;;;7.88;5.07;;;27.70;99.90;;;;;;5039616;28;20211;-75
2023/08/24 12:43:56;;;;;;;6.55;5.85;;;27.60;99.90;;;;;;5016441;28;20227;-76
2023/08/24 12:46:23;;;;;;;6.45;5.82;;;27.60;99.90;;;;;;5006864;28;20237;-77